Monday, January 22, 2018, 9:04 AM EST
Back to Local

KCDW, Caldwell Essex County Airport

Location: Fairfield, NJ, United States Lat: 40.883
Local Time: 9:04 AM EST (14:04 GMT) Lon: -74.283
Time Zone: US/Eastern Elev: 173 ft

Show me the last for .
Show Decoded

2018-01-22 08:53 METAR KCDW 221353Z 00000KT 5SM BR OVC095 05/03 A3019 RMK AO2 SLP229 T00500033 =
2018-01-22 07:53 METAR KCDW 221253Z 00000KT 5SM BR OVC090 04/03 A3018 RMK AO2 SLP227 T00390033 =
2018-01-22 06:53 METAR KCDW 221153Z 00000KT 7SM OVC090 04/03 A3016 RMK AO2 SLP220 60000 T00390033
                 10050 20033 53008 =
2018-01-22 05:53 METAR KCDW 221053Z AUTO 00000KT 6SM BR OVC037 03/03 A3014 RMK AO2 SLP212
                 T00330033 TSNO =
2018-01-22 04:53 METAR KCDW 220953Z AUTO 00000KT 7SM FEW050 OVC095 04/03 A3013 RMK AO2 SLP210
                 T00390033 TSNO =
2018-01-22 03:53 METAR KCDW 220853Z AUTO 00000KT 8SM BKN095 03/03 A3014 RMK AO2 SLP212 60000
                 T00330033 56005 TSNO =
2018-01-22 02:53 METAR KCDW 220753Z AUTO 00000KT 8SM BKN050 OVC065 04/03 A3014 RMK AO2 RAE43
                 SLP213 P0000 T00390033 TSNO =
2018-01-22 01:53 METAR KCDW 220653Z AUTO 00000KT 7SM -RA SCT042 BKN048 OVC055 04/04 A3015 RMK AO2
                 SLP216 P0000 T00440044 TSNO =
2018-01-22 00:53 METAR KCDW 220553Z AUTO 00000KT 9SM -RA OVC044 06/03 A3015 RMK AO2 RAB24 SLP217
                 P0000 60000 T00560033 10078 20050 58005 TSNO =
2018-01-21 23:53 METAR KCDW 220453Z AUTO 00000KT 10SM OVC044 06/02 A3016 RMK AO2 SLP219 T00560022
                 401001033 TSNO =
2018-01-21 22:53 METAR KCDW 220353Z AUTO 00000KT 10SM OVC039 06/02 A3017 RMK AO2 SLP222 T00560022
                 TSNO =
2018-01-21 21:53 METAR KCDW 220253Z 00000KT 10SM OVC036 06/02 A3017 RMK AO2 SLP223 T00610022
                 50001 =
2018-01-21 20:53 METAR KCDW 220153Z 00000KT 10SM OVC036 06/02 A3018 RMK AO2 SLP226 T00610017 =
2018-01-21 19:53 METAR KCDW 220053Z 00000KT 10SM OVC029 07/01 A3017 RMK AO2 SLP225 T00720011 =
2018-01-21 19:05 METAR KCDW 220005Z 19003KT 10SM OVC029 07/01 A3017 RMK AO2 T00720011 =
2018-01-21 18:53 METAR KCDW 212353Z 00000KT 10SM BKN031 OVC039 08/01 A3017 RMK AO2 SLP223
                 T00780006 10100 20072 51009 =
2018-01-21 17:53 METAR KCDW 212253Z VRB03KT 10SM OVC039 09/00 A3016 RMK AO2 SLP219 T00890000 =
2018-01-21 16:53 METAR KCDW 212153Z AUTO 00000KT 10SM OVC042 09/M01 A3015 RMK AO2 SLP216
                 T00891006 TSNO =
2018-01-21 15:53 METAR KCDW 212053Z AUTO 27004KT 10SM SCT042 09/M01 A3014 RMK AO2 SLP212
                 T00941011 55004 TSNO =
2018-01-21 14:53 METAR KCDW 211953Z 00000KT 10SM CLR 09/M01 A3014 RMK AO2 SLP211 T00941011 =
2018-01-21 13:53 METAR KCDW 211853Z 28005KT 10SM CLR 09/M02 A3013 RMK AO2 SLP211 T00891017 =
2018-01-21 12:53 METAR KCDW 211753Z VRB05KT 10SM CLR 09/M02 A3015 RMK AO2 SLP217 T00891017 10089
                 21033 58013 =
2018-01-21 11:53 METAR KCDW 211653Z VRB03KT 10SM CLR 08/M02 A3017 RMK AO2 SLP222 T00831017 =
2018-01-21 10:53 METAR KCDW 211553Z 00000KT 10SM CLR 07/M02 A3020 RMK AO2 SLP232 T00721017 =
2018-01-21 09:53 METAR KCDW 211453Z 00000KT 10SM CLR 04/00 A3019 RMK AO2 SLP230 T00440000 51015 =

Support USWX by starting your Amazon purchase here.